RJOTRJOB

Guest
Details From RJOT - TAKAMATSU
To RJOB - OKAYAMA
Flight Number -
Tags generated
Created
Modified
Stats Distance 34 nm / 62 km
Max Altitude 2,600 ft / 792 m
Waypoints 3
Social Downloads 0
Likes 0
Share VATSIM

Download

Looking for another format? Having issues loading an existing format? Contact us
Advertisement - Login to hide

Notes

Basic altitude profile: - Ascent Rate: 2500ft/min - Ascent Speed: 250kts - Cruise Altitude: 35000ft - Cruise Speed: 420kts - Descent Rate: 1500ft/min - Descent Speed: 250kts Options: - Use NATs: yes - Use PACOTS: yes - Use low airways: yes - Use high airways: yes

Route

RJOT TZC RJOB

ID Type Via Altitude Latitude Longitude Leg Dist Tot Dist Heading (true) Name
O RJOT APT - 0 ft / 0 m 34.21405˚ 134.01577˚ - 0 nm - TAKAMATSU
TZC VOR - 2,600 ft / 792 m 34.32645˚ 133.95346˚ 7 nm 7 nm 335° / 335° TAKAMATSU VORTAC
O RJOB APT - 0 ft / 0 m 34.75694˚ 133.85543˚ 26 nm 33 nm 349° / 349° OKAYAMA

Altitude Profile

Advertisement - Login to hide

RJOT

Details ICAO RJOT (TAK)
Name TAKAMATSU
Region Japan
Timezone Asia/Tokyo (UTC+9.0)
Stats Elevation 607 ft / 185 m (AMSL)
Location 34.214053° 134.015772°
Runways 1
Magnetic Variation 7.585° W

METAR

Not found

TAF

TAF RJOT 171710Z 1718/1900 23005KT 9999 FEW020 BECMG 1812/1815 15006KT BECMG 1821/1900 20006KT

Decode

Departure Runways

ID Width Length Bearing (true) Bearing (mag) Surface Threshold Offset Overrun Length
08 200 ft / 61 m 8,189 ft / 2,496 m 72.81° 80.40° Asphalt 0 ft / 0 m 210 ft / 64 m
26 200 ft / 61 m 8,189 ft / 2,496 m 252.83° 260.42° Asphalt 0 ft / 0 m 210 ft / 64 m

RJOB

Details ICAO RJOB (OKJ)
Name OKAYAMA
Region Japan
Timezone Asia/Tokyo (UTC+9.0)
Stats Elevation 806 ft / 246 m (AMSL)
Location 34.756937° 133.855435°
Runways 1
Magnetic Variation 7.764° W

METAR

Not found

TAF

TAF RJOB 171709Z 1718/1900 27006KT 9999 FEW020

Decode

Destination Runways

ID Width Length Bearing (true) Bearing (mag) Surface Threshold Offset Overrun Length
07 150 ft / 46 m 9,835 ft / 2,998 m 59.10° 66.86° Asphalt 0 ft / 0 m 200 ft / 61 m
25 150 ft / 46 m 9,835 ft / 2,998 m 239.12° 246.88° Asphalt 0 ft / 0 m 200 ft / 61 m

Approach Navaids

Runway Type Ident Frequency Range Bearing (true) Bearing (mag) Slope Elevation
07 Localiser IOY 110.30 MHz 18 nm / 33 km 59.12° 66.89° - 806 ft / 246 m (AMSL)
07 Glidescope IOY 110.30 MHz 10 nm / 19 km 59.11° 66.87° 3.00° 806 ft / 246 m (AMSL)